createdAt,value
2022-07-25T00:01:08.254Z,4.10
2022-07-25T00:03:39.189Z,4.22
2022-07-25T00:06:13.502Z,4.20
2022-07-25T00:08:45.930Z,4.88
2022-07-25T00:11:14.187Z,5.25
2022-07-25T00:13:42.193Z,5.07
2022-07-25T00:16:10.272Z,4.95
2022-07-25T00:18:38.574Z,4.70
2022-07-25T00:21:06.697Z,4.20
2022-07-25T00:23:34.736Z,4.47
2022-07-25T00:26:02.874Z,4.68
2022-07-25T00:28:30.775Z,4.72
2022-07-25T00:30:58.938Z,4.50
2022-07-25T00:33:27.314Z,4.38
2022-07-25T00:35:55.215Z,4.40
2022-07-25T00:38:23.044Z,4.65
2022-07-25T00:40:53.517Z,5.22
2022-07-25T00:43:23.679Z,4.45
2022-07-25T00:45:51.575Z,4.88
2022-07-25T00:48:19.764Z,4.55
2022-07-25T00:50:48.175Z,4.40
2022-07-25T00:53:16.887Z,4.25
2022-07-25T00:55:45.413Z,4.18
2022-07-25T00:58:13.786Z,4.40
2022-07-25T01:00:41.885Z,4.65
2022-07-25T01:03:10.228Z,4.97
2022-07-25T01:05:38.441Z,5.18
2022-07-25T01:08:08.016Z,4.65
2022-07-25T01:10:36.750Z,4.40
2022-07-25T01:13:05.145Z,5.38
2022-07-25T01:15:33.260Z,4.40
2022-07-25T01:18:01.459Z,4.55
2022-07-25T01:20:31.703Z,4.55
2022-07-25T01:23:00.443Z,4.60
2022-07-25T01:25:28.934Z,4.78
2022-07-25T01:27:58.236Z,4.57
2022-07-25T01:30:26.276Z,4.53
2022-07-25T01:32:54.463Z,4.30
2022-07-25T01:35:22.811Z,5.40
2022-07-25T01:37:50.785Z,4.00
2022-07-25T01:40:18.832Z,4.22
2022-07-25T01:42:46.925Z,4.10
2022-07-25T01:45:15.093Z,4.00
2022-07-25T01:47:43.316Z,4.10
2022-07-25T01:50:11.293Z,4.93
2022-07-25T01:52:39.902Z,4.20
2022-07-25T01:55:08.774Z,4.80
2022-07-25T01:57:37.623Z,4.20
2022-07-25T02:00:11.988Z,4.28
2022-07-25T02:02:44.473Z,4.15
2022-07-25T02:05:14.864Z,4.47
2022-07-25T02:07:43.025Z,4.60
2022-07-25T02:10:11.023Z,4.72
2022-07-25T02:12:38.942Z,4.00
2022-07-25T02:15:11.268Z,4.07
2022-07-25T02:17:39.204Z,3.90
2022-07-25T02:20:07.437Z,4.25
2022-07-25T02:22:35.827Z,4.53
2022-07-25T02:25:04.333Z,3.78
2022-07-25T02:27:32.283Z,4.68
2022-07-25T02:30:00.433Z,4.95
2022-07-25T02:32:28.394Z,4.30
2022-07-25T02:34:57.115Z,4.53
2022-07-25T02:37:25.513Z,4.47
2022-07-25T02:39:53.453Z,4.10
2022-07-25T02:42:21.624Z,4.72
2022-07-25T02:44:49.874Z,4.35
2022-07-25T02:47:17.906Z,4.25
2022-07-25T02:49:45.793Z,4.35
2022-07-25T02:52:13.976Z,5.90
2022-07-25T02:54:41.833Z,4.60
2022-07-25T02:57:09.723Z,5.00
2022-07-25T02:59:37.873Z,5.25
2022-07-25T03:02:05.823Z,4.38
2022-07-25T03:04:33.800Z,4.35
2022-07-25T03:07:01.994Z,4.55
2022-07-25T03:09:29.934Z,5.25
2022-07-25T03:11:57.838Z,4.63
2022-07-25T03:14:26.022Z,4.47
2022-07-25T03:16:53.951Z,5.07
2022-07-25T03:19:22.065Z,4.40
2022-07-25T03:21:50.233Z,4.78
2022-07-25T03:24:19.333Z,4.75
2022-07-25T03:26:47.242Z,4.82
2022-07-25T03:29:15.411Z,5.07
2022-07-25T03:31:43.315Z,5.82
2022-07-25T03:34:11.342Z,5.07
2022-07-25T03:36:39.472Z,5.13
2022-07-25T03:39:07.397Z,5.28
2022-07-25T03:41:35.362Z,5.32
2022-07-25T03:44:04.140Z,5.50
2022-07-25T03:46:32.635Z,4.70
2022-07-25T03:49:00.624Z,5.03
2022-07-25T03:51:28.865Z,5.15
2022-07-25T03:54:02.403Z,5.57
2022-07-25T03:56:31.891Z,5.32
2022-07-25T03:58:59.836Z,4.75
2022-07-25T04:01:28.030Z,5.05
2022-07-25T04:03:56.523Z,5.80
2022-07-25T04:06:25.788Z,5.10
2022-07-25T04:08:55.313Z,5.18
2022-07-25T04:11:23.633Z,4.90
2022-07-25T04:13:51.845Z,5.20
2022-07-25T04:16:22.394Z,5.45
2022-07-25T04:18:52.206Z,5.18
2022-07-25T04:21:20.381Z,5.53
2022-07-25T04:23:48.996Z,5.25
2022-07-25T04:26:17.708Z,5.45
2022-07-25T04:28:45.831Z,5.65
2022-07-25T04:31:14.643Z,5.18
2022-07-25T04:33:43.186Z,6.78
2022-07-25T04:36:11.164Z,6.50
2022-07-25T04:38:39.338Z,5.60
2022-07-25T04:41:07.508Z,6.43
2022-07-25T04:43:35.418Z,6.30
2022-07-25T04:46:03.740Z,6.25
2022-07-25T04:48:32.083Z,6.45
2022-07-25T04:51:00.180Z,6.05
2022-07-25T04:53:28.311Z,5.70
2022-07-25T04:55:56.471Z,6.47
2022-07-25T04:58:24.408Z,5.20
2022-07-25T05:00:52.374Z,5.22
2022-07-25T05:03:20.682Z,5.25
2022-07-25T05:05:48.601Z,6.43
2022-07-25T05:08:17.059Z,6.10
2022-07-25T05:10:45.311Z,7.00
2022-07-25T05:13:13.249Z,7.70
2022-07-25T05:15:41.220Z,7.15
2022-07-25T05:18:09.790Z,7.13
2022-07-25T05:20:37.834Z,7.47
2022-07-25T05:23:05.827Z,7.30
2022-07-25T05:25:34.270Z,6.65
2022-07-25T05:28:03.128Z,6.68
2022-07-25T05:30:32.074Z,7.03
2022-07-25T05:33:01.828Z,7.07
2022-07-25T05:35:29.996Z,6.10
2022-07-25T05:37:57.848Z,7.40
2022-07-25T05:40:26.139Z,6.65
2022-07-25T05:42:55.443Z,6.38
2022-07-25T05:45:25.179Z,7.07
2022-07-25T05:47:53.353Z,5.55
2022-07-25T05:50:21.519Z,6.85
2022-07-25T05:52:49.472Z,5.97
2022-07-25T05:55:18.298Z,6.10
2022-07-25T05:57:46.251Z,6.75
2022-07-25T06:00:15.119Z,7.00
2022-07-25T06:02:43.318Z,7.05
2022-07-25T06:05:11.660Z,6.47
2022-07-25T06:07:40.049Z,7.28
2022-07-25T06:10:08.548Z,5.75
2022-07-25T06:12:36.906Z,6.57
2022-07-25T06:15:06.518Z,5.00
2022-07-25T06:17:34.648Z,6.22
2022-07-25T06:20:02.558Z,6.63
2022-07-25T06:22:31.298Z,6.75
2022-07-25T06:24:59.423Z,6.65
2022-07-25T06:27:29.352Z,6.07
2022-07-25T06:29:57.594Z,6.07
2022-07-25T06:32:25.722Z,5.82
2022-07-25T06:34:53.726Z,5.82
2022-07-25T06:37:21.665Z,5.82
2022-07-25T06:39:49.865Z,5.78
2022-07-25T06:42:17.843Z,5.15
2022-07-25T06:44:45.836Z,6.25
2022-07-25T06:47:14.048Z,7.22
2022-07-25T06:49:42.693Z,6.00
2022-07-25T06:52:10.813Z,7.15
2022-07-25T06:54:39.153Z,6.88
2022-07-25T06:57:07.121Z,6.40
2022-07-25T06:59:35.035Z,6.03
2022-07-25T07:02:03.213Z,7.03
2022-07-25T07:04:31.112Z,6.45
2022-07-25T07:06:59.005Z,5.93
2022-07-25T07:09:27.276Z,6.63
2022-07-25T07:11:55.237Z,6.57
2022-07-25T07:14:23.445Z,5.80
2022-07-25T07:16:51.710Z,7.05
2022-07-25T07:19:20.054Z,6.88
2022-07-25T07:21:50.246Z,6.03
2022-07-25T07:24:24.228Z,6.05
2022-07-25T07:26:54.604Z,6.50
2022-07-25T07:29:22.816Z,5.68
2022-07-25T07:31:51.048Z,6.15
2022-07-25T07:34:19.325Z,5.65
2022-07-25T07:36:47.781Z,6.28
2022-07-25T07:39:17.127Z,6.07
2022-07-25T07:41:46.026Z,6.20
2022-07-25T07:44:14.917Z,6.15
2022-07-25T07:46:43.144Z,5.50
2022-07-25T07:49:11.874Z,6.25
2022-07-25T07:51:40.987Z,5.68
2022-07-25T07:54:27.686Z,6.07
2022-07-25T07:56:56.166Z,5.57
2022-07-25T07:59:24.330Z,5.97
2022-07-25T08:01:52.712Z,5.78
2022-07-25T08:04:21.215Z,5.63
2022-07-25T08:06:49.329Z,6.20
2022-07-25T08:09:17.563Z,5.75
2022-07-25T08:11:45.945Z,5.40
2022-07-25T08:14:13.967Z,5.65
2022-07-25T08:16:42.505Z,5.68
2022-07-25T08:19:13.459Z,5.07
2022-07-25T08:21:42.144Z,5.13
2022-07-25T08:24:15.859Z,4.55
2022-07-25T08:26:44.069Z,5.55
2022-07-25T08:29:19.090Z,4.95
2022-07-25T08:31:48.599Z,4.82
2022-07-25T08:34:17.703Z,4.72
2022-07-25T08:36:45.853Z,4.95
2022-07-25T08:39:16.062Z,5.20
2022-07-25T08:41:44.352Z,4.50
2022-07-25T08:44:17.704Z,5.00
2022-07-25T08:46:46.205Z,5.10
2022-07-25T08:49:14.652Z,4.60
2022-07-25T08:51:43.633Z,5.15
2022-07-25T08:54:12.225Z,5.13
2022-07-25T08:56:42.193Z,5.13
2022-07-25T08:59:10.724Z,5.68
2022-07-25T09:01:41.493Z,5.55
2022-07-25T09:04:10.760Z,4.55
2022-07-25T09:06:52.643Z,4.55
2022-07-25T09:09:30.243Z,4.82
2022-07-25T09:11:59.084Z,4.90
2022-07-25T09:14:29.893Z,4.82
2022-07-25T09:16:58.492Z,4.93
2022-07-25T09:19:26.811Z,4.85
2022-07-25T09:22:07.262Z,4.30
2022-07-25T09:24:45.977Z,4.30
2022-07-25T09:27:15.320Z,5.25
2022-07-25T09:29:44.435Z,5.70
2022-07-25T09:32:20.885Z,4.90
2022-07-25T09:34:50.993Z,5.07
2022-07-25T09:37:25.366Z,4.70
2022-07-25T09:39:53.874Z,4.88
2022-07-25T09:42:33.740Z,4.68
2022-07-25T09:45:05.833Z,3.85
2022-07-25T09:47:37.122Z,4.35
2022-07-25T09:50:07.533Z,4.38
2022-07-25T09:52:37.161Z,4.43
2022-07-25T09:55:06.668Z,3.65
2022-07-25T09:57:34.990Z,4.50
2022-07-25T10:00:05.233Z,3.95
2022-07-25T10:02:42.055Z,4.10
2022-07-25T10:05:14.392Z,4.80
2022-07-25T10:07:48.607Z,4.70
2022-07-25T10:10:30.810Z,4.60
2022-07-25T10:13:29.540Z,4.50
2022-07-25T10:15:57.669Z,4.55
2022-07-25T10:18:29.468Z,4.78
2022-07-25T10:21:25.152Z,4.43
2022-07-25T10:24:03.017Z,5.03
2022-07-25T10:26:32.513Z,4.43
2022-07-25T10:29:02.596Z,4.32
2022-07-25T10:31:33.376Z,4.78
2022-07-25T10:34:13.997Z,3.95
2022-07-25T10:36:44.396Z,3.92
2022-07-25T10:39:15.734Z,4.55
2022-07-25T10:41:53.189Z,4.25
2022-07-25T10:44:22.235Z,3.67
2022-07-25T10:46:50.781Z,3.88
2022-07-25T10:49:29.164Z,4.18
2022-07-25T10:52:04.222Z,4.07
2022-07-25T10:54:37.786Z,4.15
2022-07-25T10:57:14.098Z,3.97
2022-07-25T10:59:42.308Z,4.32
2022-07-25T11:02:19.569Z,3.65
2022-07-25T11:05:01.509Z,3.80
2022-07-25T11:07:36.401Z,4.50
2022-07-25T11:10:06.140Z,4.38
2022-07-25T11:12:34.523Z,4.20
2022-07-25T11:15:05.418Z,4.13
2022-07-25T11:17:34.872Z,4.00
2022-07-25T11:20:06.876Z,4.30
2022-07-25T11:22:43.106Z,4.27
2022-07-25T11:25:33.543Z,4.78
2022-07-25T11:28:21.978Z,4.10
2022-07-25T11:31:39.505Z,4.30
2022-07-25T11:34:49.345Z,4.18
2022-07-25T11:37:20.578Z,4.32
2022-07-25T11:39:49.042Z,4.80
2022-07-25T11:42:19.880Z,3.85
2022-07-25T11:44:52.219Z,4.47
2022-07-25T11:47:34.029Z,4.20
2022-07-25T11:50:13.519Z,3.90
2022-07-25T11:53:02.957Z,4.22
2022-07-25T11:55:33.668Z,3.80
2022-07-25T11:58:04.601Z,4.00
2022-07-25T12:00:50.961Z,3.72
2022-07-25T12:03:23.862Z,4.30
2022-07-25T12:05:52.486Z,4.15
2022-07-25T12:08:25.786Z,4.38
2022-07-25T12:10:56.169Z,3.65
2022-07-25T12:13:29.306Z,3.70
2022-07-25T12:15:59.812Z,4.53
2022-07-25T12:18:28.690Z,3.80
2022-07-25T12:20:56.791Z,4.22
2022-07-25T12:23:25.109Z,3.88
2022-07-25T12:25:53.219Z,4.05
2022-07-25T12:28:21.430Z,4.60
2022-07-25T12:30:55.993Z,4.38
2022-07-25T12:33:25.149Z,4.20
2022-07-25T12:35:53.564Z,4.15
2022-07-25T12:38:21.710Z,4.55
2022-07-25T12:40:49.969Z,4.75
2022-07-25T12:43:18.697Z,4.25
2022-07-25T12:45:46.889Z,4.43
2022-07-25T12:48:16.184Z,4.40
2022-07-25T12:50:45.714Z,4.13
2022-07-25T12:53:14.095Z,4.38
2022-07-25T12:55:42.314Z,4.57
2022-07-25T12:58:11.054Z,4.35
2022-07-25T13:00:39.345Z,4.70
2022-07-25T13:03:07.406Z,4.80
2022-07-25T13:05:35.880Z,4.93
2022-07-25T13:08:07.636Z,5.00
2022-07-25T13:10:35.793Z,4.73
2022-07-25T13:13:04.164Z,4.63
2022-07-25T13:15:32.411Z,4.10
2022-07-25T13:18:02.416Z,5.15
2022-07-25T13:20:31.620Z,4.70
2022-07-25T13:22:59.706Z,4.25
2022-07-25T13:25:27.830Z,4.20
2022-07-25T13:27:56.159Z,4.95
2022-07-25T13:30:24.170Z,4.50
2022-07-25T13:32:53.741Z,4.90
2022-07-25T13:35:25.773Z,4.15
2022-07-25T13:37:59.825Z,4.68
2022-07-25T13:40:28.179Z,4.32
2022-07-25T13:42:56.490Z,4.38
2022-07-25T13:45:24.568Z,4.38
2022-07-25T13:48:12.130Z,4.28
2022-07-25T13:50:58.256Z,4.90
2022-07-25T13:53:29.931Z,3.97
2022-07-25T13:55:59.723Z,4.80
2022-07-25T13:58:28.833Z,4.30
2022-07-25T14:00:56.765Z,4.72
2022-07-25T14:03:24.870Z,4.63
2022-07-25T14:05:53.103Z,4.88
2022-07-25T14:08:21.066Z,5.10
2022-07-25T14:10:48.963Z,4.75
2022-07-25T14:13:17.133Z,4.60
2022-07-25T14:15:45.742Z,4.80
2022-07-25T14:18:13.769Z,4.68
2022-07-25T14:20:42.351Z,4.80
2022-07-25T14:23:10.347Z,4.38
2022-07-25T14:25:38.805Z,4.43
2022-07-25T14:28:07.046Z,4.47
2022-07-25T14:30:34.948Z,4.70
2022-07-25T14:33:02.830Z,4.70
2022-07-25T14:35:32.686Z,4.75
2022-07-25T14:38:01.539Z,5.35
2022-07-25T14:40:29.508Z,4.57
2022-07-25T14:42:57.691Z,6.07
2022-07-25T14:45:25.685Z,4.78
2022-07-25T14:47:54.193Z,4.72
2022-07-25T14:50:23.624Z,4.40
2022-07-25T14:52:51.556Z,5.35
2022-07-25T14:55:21.207Z,5.57
2022-07-25T14:57:49.426Z,4.80
2022-07-25T15:00:17.694Z,5.28
2022-07-25T15:02:45.620Z,5.00
2022-07-25T15:05:13.849Z,5.07
2022-07-25T15:07:41.784Z,5.57
2022-07-25T15:10:10.137Z,4.72
2022-07-25T15:12:38.343Z,5.93
2022-07-25T15:15:07.697Z,4.90
2022-07-25T15:17:35.642Z,4.57
2022-07-25T15:20:04.737Z,4.55
2022-07-25T15:22:33.232Z,4.65
2022-07-25T15:27:50.127Z,5.15
2022-07-25T15:30:18.074Z,4.90
2022-07-25T15:32:46.072Z,4.80
2022-07-25T15:35:14.888Z,4.63
2022-07-25T15:37:43.196Z,5.45
2022-07-25T15:40:11.881Z,4.70
2022-07-25T15:42:40.397Z,4.80
2022-07-25T15:45:31.941Z,4.68
2022-07-25T15:47:57.098Z,4.90
2022-07-25T15:50:24.981Z,5.03
2022-07-25T15:52:52.945Z,5.05
2022-07-25T15:55:21.439Z,5.32
2022-07-25T15:57:49.370Z,5.00
2022-07-25T16:00:17.305Z,4.72
2022-07-25T16:02:46.887Z,5.38
2022-07-25T16:05:15.924Z,4.80
2022-07-25T16:07:44.706Z,4.78
2022-07-25T16:10:13.524Z,4.70
2022-07-25T16:12:41.564Z,4.40
2022-07-25T16:15:09.885Z,5.57
2022-07-25T16:17:38.999Z,5.10
2022-07-25T16:20:09.409Z,5.30
2022-07-25T16:22:38.102Z,5.40
2022-07-25T16:25:06.964Z,4.97
2022-07-25T16:27:35.370Z,4.85
2022-07-25T16:30:04.399Z,6.68
2022-07-25T16:32:32.818Z,4.97
2022-07-25T16:35:00.773Z,4.97
2022-07-25T16:37:28.641Z,5.20
2022-07-25T16:39:56.947Z,5.03
2022-07-25T16:42:25.015Z,5.78
2022-07-25T16:44:52.932Z,5.68
2022-07-25T16:47:21.260Z,4.88
2022-07-25T16:49:49.131Z,4.80
2022-07-25T16:52:17.109Z,4.70
2022-07-25T16:54:45.653Z,5.10
2022-07-25T16:57:15.004Z,5.53
2022-07-25T16:59:43.587Z,5.47
2022-07-25T17:02:11.892Z,4.80
2022-07-25T17:04:39.894Z,4.40
2022-07-25T17:07:08.115Z,4.82
2022-07-25T17:09:36.308Z,4.70
2022-07-25T17:12:04.596Z,5.10
2022-07-25T17:14:32.566Z,5.30
2022-07-25T17:17:00.876Z,4.65
2022-07-25T17:19:28.865Z,5.45
2022-07-25T17:21:56.807Z,4.85
2022-07-25T17:24:25.056Z,4.88
2022-07-25T17:26:52.989Z,4.75
2022-07-25T17:29:20.949Z,4.90
2022-07-25T17:31:49.095Z,5.30
2022-07-25T17:34:17.069Z,5.30
2022-07-25T17:36:45.058Z,4.80
2022-07-25T17:39:13.339Z,4.65
2022-07-25T17:41:41.289Z,4.30
2022-07-25T17:44:12.042Z,4.55
2022-07-25T17:46:40.832Z,4.40
2022-07-25T17:49:08.986Z,5.50
2022-07-25T17:51:37.227Z,6.20
2022-07-25T17:54:06.294Z,4.78
2022-07-25T17:56:34.539Z,5.47
2022-07-25T17:59:03.219Z,4.90
2022-07-25T18:01:31.512Z,5.45
2022-07-25T18:03:59.519Z,4.95
2022-07-25T18:06:30.010Z,4.75
2022-07-25T18:08:58.588Z,5.28
2022-07-25T18:11:26.650Z,5.13
2022-07-25T18:13:54.659Z,4.88
2022-07-25T18:16:23.350Z,4.93
2022-07-25T18:18:51.400Z,5.55
2022-07-25T18:21:19.298Z,5.00
2022-07-25T18:23:47.626Z,4.90
2022-07-25T18:26:15.688Z,5.53
2022-07-25T18:28:44.486Z,5.10
2022-07-25T18:31:12.968Z,4.65
2022-07-25T18:33:41.228Z,4.82
2022-07-25T18:36:09.441Z,5.25
2022-07-25T18:38:37.937Z,4.40
2022-07-25T18:41:27.917Z,5.00
2022-07-25T18:43:56.647Z,5.40
2022-07-25T18:46:25.370Z,4.80
2022-07-25T18:48:53.800Z,4.68
2022-07-25T18:51:22.428Z,4.82
2022-07-25T18:53:50.411Z,4.82
2022-07-25T18:56:18.548Z,5.28
2022-07-25T18:58:46.858Z,4.75
2022-07-25T19:01:14.864Z,4.40
2022-07-25T19:03:43.028Z,4.65
2022-07-25T19:06:11.931Z,5.78
2022-07-25T19:08:39.970Z,4.78
2022-07-25T19:11:09.009Z,5.10
2022-07-25T19:13:51.334Z,5.35
2022-07-25T19:16:20.438Z,5.38
2022-07-25T19:18:49.487Z,5.25
2022-07-25T19:21:17.577Z,5.60
2022-07-25T19:23:50.451Z,5.10
2022-07-25T19:26:21.399Z,5.65
2022-07-25T19:28:50.629Z,6.60
2022-07-25T19:31:19.253Z,5.57
2022-07-25T19:33:47.631Z,5.45
2022-07-25T19:36:15.730Z,5.95
2022-07-25T19:38:43.738Z,5.88
2022-07-25T19:41:12.271Z,4.65
2022-07-25T19:43:40.312Z,5.03
2022-07-25T19:46:08.420Z,5.65
2022-07-25T19:48:36.702Z,5.50
2022-07-25T19:51:04.888Z,5.03
2022-07-25T19:53:32.981Z,5.25
2022-07-25T19:56:01.919Z,4.95
2022-07-25T19:58:31.479Z,6.18
2022-07-25T20:01:01.245Z,5.03
2022-07-25T20:03:29.638Z,5.63
2022-07-25T20:05:57.650Z,5.93
2022-07-25T20:08:25.608Z,5.43
2022-07-25T20:10:53.878Z,5.40
2022-07-25T20:13:21.819Z,5.70
2022-07-25T20:15:49.788Z,5.88
2022-07-25T20:18:19.692Z,6.45
2022-07-25T20:20:48.473Z,5.68
2022-07-25T20:23:16.657Z,5.90
2022-07-25T20:25:44.987Z,5.03
2022-07-25T20:28:13.019Z,6.07
2022-07-25T20:30:41.104Z,5.78
2022-07-25T20:33:09.924Z,6.03
2022-07-25T20:35:38.979Z,5.68
2022-07-25T20:38:10.073Z,5.85
2022-07-25T20:40:48.209Z,5.30
2022-07-25T20:43:19.020Z,6.13
2022-07-25T20:45:47.787Z,5.57
2022-07-25T20:48:16.181Z,6.35
2022-07-25T20:50:45.247Z,6.55
2022-07-25T20:53:13.510Z,6.35
2022-07-25T20:55:41.659Z,5.88
2022-07-25T20:58:09.678Z,6.63
2022-07-25T21:00:37.980Z,6.70
2022-07-25T21:03:08.215Z,6.00
2022-07-25T21:05:42.349Z,7.43
2022-07-25T21:08:13.288Z,6.90
2022-07-25T21:10:41.338Z,13.60
2022-07-25T21:13:09.282Z,9.68
2022-07-25T21:15:37.752Z,8.77
2022-07-25T21:18:05.872Z,10.38
2022-07-25T21:20:34.010Z,7.20
2022-07-25T21:23:02.339Z,7.47
2022-07-25T21:25:30.369Z,8.65
2022-07-25T21:27:58.350Z,7.60
2022-07-25T21:30:26.689Z,7.00
2022-07-25T21:32:54.777Z,7.43
2022-07-25T21:35:22.893Z,6.60
2022-07-25T21:37:51.170Z,6.50
2022-07-25T21:40:19.191Z,7.38
2022-07-25T21:42:47.260Z,7.85
2022-07-25T21:45:16.339Z,7.88
2022-07-25T21:47:44.623Z,7.18
2022-07-25T21:50:30.990Z,7.28
2022-07-25T21:52:59.860Z,6.13
2022-07-25T21:55:27.894Z,7.00
2022-07-25T21:57:55.870Z,6.45
2022-07-25T22:00:24.150Z,7.53
2022-07-25T22:02:52.477Z,6.90
2022-07-25T22:05:21.109Z,6.85
2022-07-25T22:07:50.041Z,7.50
2022-07-25T22:10:19.919Z,6.68
2022-07-25T22:12:48.901Z,6.53
2022-07-25T22:15:17.580Z,6.78
2022-07-25T22:17:48.233Z,5.93
2022-07-25T22:20:19.802Z,7.30
2022-07-25T22:22:48.881Z,5.93
2022-07-25T22:25:18.369Z,6.05
2022-07-25T22:27:46.499Z,8.48
2022-07-25T22:30:19.244Z,7.65
2022-07-25T22:32:48.996Z,7.18
2022-07-25T22:35:17.989Z,7.47
2022-07-25T22:37:46.419Z,6.43
2022-07-25T22:40:15.113Z,6.10
2022-07-25T22:42:43.121Z,5.10
2022-07-25T22:45:11.449Z,5.38
2022-07-25T22:47:39.632Z,5.35
2022-07-25T22:50:08.519Z,4.95
2022-07-25T22:52:36.668Z,4.30
2022-07-25T22:55:05.269Z,5.30
2022-07-25T22:57:33.677Z,4.00
2022-07-25T23:00:12.232Z,4.13
2022-07-25T23:02:40.736Z,4.63
2022-07-25T23:05:09.649Z,4.05
2022-07-25T23:07:38.209Z,3.85
2022-07-25T23:10:07.201Z,4.00
2022-07-25T23:12:35.678Z,3.65
2022-07-25T23:15:04.889Z,3.70
2022-07-25T23:17:33.103Z,3.50
2022-07-25T23:20:01.107Z,3.45
2022-07-25T23:22:30.326Z,3.55
2022-07-25T23:24:59.144Z,3.45
2022-07-25T23:27:27.544Z,3.15
2022-07-25T23:29:55.905Z,3.10
2022-07-25T23:32:24.165Z,3.05
2022-07-25T23:34:52.074Z,3.10
2022-07-25T23:37:19.993Z,3.17
2022-07-25T23:39:48.127Z,3.95
2022-07-25T23:42:16.046Z,3.92
2022-07-25T23:44:44.527Z,3.53
2022-07-25T23:47:12.942Z,4.53
2022-07-25T23:49:41.152Z,3.63
2022-07-25T23:52:09.403Z,3.22
2022-07-25T23:54:38.836Z,3.40
2022-07-25T23:57:08.504Z,4.07
2022-07-25T23:59:36.527Z,4.18
